sensor_id;sensor_type;location;lat;lon;timestamp;pressure;altitude;pressure_sealevel;temperature;humidity
38163;BME280;23977;53.078;18.248;2023-08-06T00:00:24;100399.88;;;16.98;100.00
38163;BME280;23977;53.078;18.248;2023-08-06T00:03:10;100399.63;;;17.07;100.00
38163;BME280;23977;53.078;18.248;2023-08-06T00:05:35;100389.31;;;17.04;100.00
38163;BME280;23977;53.078;18.248;2023-08-06T00:08:01;100397.63;;;16.95;100.00
38163;BME280;23977;53.078;18.248;2023-08-06T00:10:27;100385.22;;;16.88;100.00
38163;BME280;23977;53.078;18.248;2023-08-06T00:12:53;100378.38;;;16.98;100.00
38163;BME280;23977;53.078;18.248;2023-08-06T00:15:19;100367.00;;;16.83;100.00
38163;BME280;23977;53.078;18.248;2023-08-06T00:17:45;100386.66;;;16.90;100.00
38163;BME280;23977;53.078;18.248;2023-08-06T00:20:10;100377.38;;;16.86;100.00
38163;BME280;23977;53.078;18.248;2023-08-06T00:22:37;100369.50;;;16.91;100.00
38163;BME280;23977;53.078;18.248;2023-08-06T00:25:04;100366.59;;;16.93;100.00
38163;BME280;23977;53.078;18.248;2023-08-06T00:27:30;100348.22;;;16.90;100.00
38163;BME280;23977;53.078;18.248;2023-08-06T00:29:55;100346.78;;;16.80;100.00
38163;BME280;23977;53.078;18.248;2023-08-06T00:32:21;100346.13;;;16.78;100.00
38163;BME280;23977;53.078;18.248;2023-08-06T00:34:47;100339.97;;;16.85;100.00
38163;BME280;23977;53.078;18.248;2023-08-06T00:37:17;100348.63;;;16.80;100.00
38163;BME280;23977;53.078;18.248;2023-08-06T00:39:43;100345.53;;;16.76;100.00
38163;BME280;23977;53.078;18.248;2023-08-06T00:42:10;100338.72;;;16.80;100.00
38163;BME280;23977;53.078;18.248;2023-08-06T00:44:37;100320.34;;;16.71;100.00
38163;BME280;23977;53.078;18.248;2023-08-06T00:47:03;100304.22;;;16.71;100.00
38163;BME280;23977;53.078;18.248;2023-08-06T00:49:29;100305.03;;;16.78;100.00
38163;BME280;23977;53.078;18.248;2023-08-06T00:51:54;100312.25;;;16.77;100.00
38163;BME280;23977;53.078;18.248;2023-08-06T00:54:21;100303.38;;;16.70;100.00
38163;BME280;23977;53.078;18.248;2023-08-06T00:56:48;100304.22;;;16.71;100.00
38163;BME280;23977;53.078;18.248;2023-08-06T00:59:14;100292.03;;;16.68;100.00
38163;BME280;23977;53.078;18.248;2023-08-06T01:01:39;100301.34;;;16.65;100.00
38163;BME280;23977;53.078;18.248;2023-08-06T01:04:05;100305.91;;;16.58;100.00
38163;BME280;23977;53.078;18.248;2023-08-06T01:12:27;100265.38;;;16.60;100.00
38163;BME280;23977;53.078;18.248;2023-08-06T01:15:11;100247.47;;;16.54;100.00
38163;BME280;23977;53.078;18.248;2023-08-06T01:17:40;100238.94;;;16.57;100.00
38163;BME280;23977;53.078;18.248;2023-08-06T01:20:06;100229.47;;;16.54;100.00
38163;BME280;23977;53.078;18.248;2023-08-06T01:22:32;100215.84;;;16.49;100.00
38163;BME280;23977;53.078;18.248;2023-08-06T01:24:57;100205.31;;;16.48;100.00
38163;BME280;23977;53.078;18.248;2023-08-06T01:27:44;100178.72;;;16.33;100.00
38163;BME280;23977;53.078;18.248;2023-08-06T01:30:13;100173.78;;;16.30;100.00
38163;BME280;23977;53.078;18.248;2023-08-06T01:32:44;100162.97;;;16.43;100.00
38163;BME280;23977;53.078;18.248;2023-08-06T01:35:11;100135.34;;;16.36;100.00
38163;BME280;23977;53.078;18.248;2023-08-06T01:37:38;100137.16;;;16.42;100.00
38163;BME280;23977;53.078;18.248;2023-08-06T01:40:10;100125.38;;;16.43;100.00
38163;BME280;23977;53.078;18.248;2023-08-06T01:42:36;100144.81;;;16.38;100.00
38163;BME280;23977;53.078;18.248;2023-08-06T01:45:01;100143.16;;;16.44;100.00
38163;BME280;23977;53.078;18.248;2023-08-06T01:47:27;100129.13;;;16.35;100.00
38163;BME280;23977;53.078;18.248;2023-08-06T01:49:53;100127.69;;;16.39;100.00
38163;BME280;23977;53.078;18.248;2023-08-06T01:52:18;100102.06;;;16.37;100.00
38163;BME280;23977;53.078;18.248;2023-08-06T01:54:44;100091.53;;;16.35;100.00
38163;BME280;23977;53.078;18.248;2023-08-06T01:57:10;100083.72;;;16.34;100.00
38163;BME280;23977;53.078;18.248;2023-08-06T01:59:35;100069.59;;;16.45;100.00
38163;BME280;23977;53.078;18.248;2023-08-06T02:02:01;100046.91;;;16.41;100.00
38163;BME280;23977;53.078;18.248;2023-08-06T02:04:26;100038.63;;;16.42;100.00
38163;BME280;23977;53.078;18.248;2023-08-06T02:06:52;100020.06;;;16.41;100.00
38163;BME280;23977;53.078;18.248;2023-08-06T02:09:17;100013.81;;;16.47;100.00
38163;BME280;23977;53.078;18.248;2023-08-06T02:11:43;100022.88;;;16.53;100.00
38163;BME280;23977;53.078;18.248;2023-08-06T02:14:09;100011.75;;;16.49;100.00
38163;BME280;23977;53.078;18.248;2023-08-06T02:16:34;100019.38;;;16.52;100.00
38163;BME280;23977;53.078;18.248;2023-08-06T02:19:00;100028.63;;;16.56;100.00
38163;BME280;23977;53.078;18.248;2023-08-06T02:21:25;100032.34;;;16.55;100.00
38163;BME280;23977;53.078;18.248;2023-08-06T02:23:51;100050.00;;;16.70;100.00
38163;BME280;23977;53.078;18.248;2023-08-06T02:26:17;100053.47;;;16.77;100.00
38163;BME280;23977;53.078;18.248;2023-08-06T02:28:42;100039.16;;;16.83;100.00
38163;BME280;23977;53.078;18.248;2023-08-06T02:31:08;100047.75;;;16.67;100.00
38163;BME280;23977;53.078;18.248;2023-08-06T02:33:33;100006.59;;;16.48;100.00
38163;BME280;23977;53.078;18.248;2023-08-06T02:36:03;100023.25;;;16.56;100.00
38163;BME280;23977;53.078;18.248;2023-08-06T02:38:32;100027.31;;;16.65;100.00
38163;BME280;23977;53.078;18.248;2023-08-06T02:40:58;100031.22;;;16.70;100.00
38163;BME280;23977;53.078;18.248;2023-08-06T02:43:23;100022.38;;;16.62;100.00
38163;BME280;23977;53.078;18.248;2023-08-06T02:45:49;100020.91;;;16.67;100.00
38163;BME280;23977;53.078;18.248;2023-08-06T02:48:14;100022.88;;;16.78;100.00
38163;BME280;23977;53.078;18.248;2023-08-06T02:50:41;100030.94;;;16.78;100.00
38163;BME280;23977;53.078;18.248;2023-08-06T02:53:07;100031.97;;;16.77;100.00
38163;BME280;23977;53.078;18.248;2023-08-06T02:55:34;100028.84;;;16.80;100.00
38163;BME280;23977;53.078;18.248;2023-08-06T02:58:03;100019.38;;;16.77;100.00
38163;BME280;23977;53.078;18.248;2023-08-06T03:00:28;100011.69;;;16.81;100.00
38163;BME280;23977;53.078;18.248;2023-08-06T03:02:54;99999.50;;;16.78;100.00
38163;BME280;23977;53.078;18.248;2023-08-06T03:05:20;99996.00;;;16.78;100.00
38163;BME280;23977;53.078;18.248;2023-08-06T03:07:46;100002.41;;;16.77;100.00
38163;BME280;23977;53.078;18.248;2023-08-06T03:10:12;100001.31;;;16.91;100.00
38163;BME280;23977;53.078;18.248;2023-08-06T03:12:38;99993.69;;;16.88;100.00
38163;BME280;23977;53.078;18.248;2023-08-06T03:15:04;100001.91;;;16.93;100.00
38163;BME280;23977;53.078;18.248;2023-08-06T03:17:30;100001.91;;;16.93;100.00
38163;BME280;23977;53.078;18.248;2023-08-06T03:19:56;99993.25;;;16.91;100.00
38163;BME280;23977;53.078;18.248;2023-08-06T03:22:21;99985.44;;;16.83;100.00
38163;BME280;23977;53.078;18.248;2023-08-06T03:24:50;99989.69;;;16.97;100.00
38163;BME280;23977;53.078;18.248;2023-08-06T03:27:15;99980.72;;;17.04;100.00
38163;BME280;23977;53.078;18.248;2023-08-06T03:29:41;99986.09;;;17.04;100.00
38163;BME280;23977;53.078;18.248;2023-08-06T03:32:07;99966.38;;;16.91;100.00
38163;BME280;23977;53.078;18.248;2023-08-06T03:34:33;99959.28;;;16.97;100.00
38163;BME280;23977;53.078;18.248;2023-08-06T03:36:58;99962.34;;;17.00;100.00
38163;BME280;23977;53.078;18.248;2023-08-06T03:39:24;99955.63;;;17.10;100.00
38163;BME280;23977;53.078;18.248;2023-08-06T03:41:49;99931.56;;;16.96;100.00
38163;BME280;23977;53.078;18.248;2023-08-06T03:44:15;99940.16;;;17.05;100.00
38163;BME280;23977;53.078;18.248;2023-08-06T03:46:40;99929.97;;;17.14;100.00
38163;BME280;23977;53.078;18.248;2023-08-06T03:49:06;99903.75;;;17.09;100.00
38163;BME280;23977;53.078;18.248;2023-08-06T03:51:31;99906.50;;;17.21;100.00
38163;BME280;23977;53.078;18.248;2023-08-06T03:53:57;99901.72;;;17.23;100.00
38163;BME280;23977;53.078;18.248;2023-08-06T03:56:23;99867.59;;;17.24;100.00
38163;BME280;23977;53.078;18.248;2023-08-06T03:58:48;99859.75;;;17.22;100.00
38163;BME280;23977;53.078;18.248;2023-08-06T04:01:15;99836.22;;;17.17;100.00
38163;BME280;23977;53.078;18.248;2023-08-06T04:03:40;99801.66;;;17.21;100.00
38163;BME280;23977;53.078;18.248;2023-08-06T04:06:06;99788.91;;;17.28;100.00
38163;BME280;23977;53.078;18.248;2023-08-06T04:08:32;99781.78;;;17.22;100.00
38163;BME280;23977;53.078;18.248;2023-08-06T04:10:58;99772.53;;;17.18;100.00
38163;BME280;23977;53.078;18.248;2023-08-06T04:13:24;99784.09;;;17.18;100.00
38163;BME280;23977;53.078;18.248;2023-08-06T04:15:49;99803.34;;;17.34;100.00
38163;BME280;23977;53.078;18.248;2023-08-06T04:18:16;99798.78;;;17.34;100.00
38163;BME280;23977;53.078;18.248;2023-08-06T04:20:43;99783.09;;;17.31;100.00
38163;BME280;23977;53.078;18.248;2023-08-06T04:23:10;99809.53;;;17.34;100.00
38163;BME280;23977;53.078;18.248;2023-08-06T04:25:35;99807.66;;;17.35;100.00
38163;BME280;23977;53.078;18.248;2023-08-06T04:28:01;99795.50;;;17.32;100.00
38163;BME280;23977;53.078;18.248;2023-08-06T04:30:26;99799.59;;;17.35;100.00
38163;BME280;23977;53.078;18.248;2023-08-06T04:32:52;99807.56;;;17.42;100.00
38163;BME280;23977;53.078;18.248;2023-08-06T04:35:17;99806.28;;;17.44;100.00
38163;BME280;23977;53.078;18.248;2023-08-06T04:37:43;99797.56;;;17.49;100.00
38163;BME280;23977;53.078;18.248;2023-08-06T04:40:09;99789.00;;;17.52;100.00
38163;BME280;23977;53.078;18.248;2023-08-06T04:42:35;99785.16;;;17.60;100.00
38163;BME280;23977;53.078;18.248;2023-08-06T04:45:01;99764.47;;;17.60;100.00
38163;BME280;23977;53.078;18.248;2023-08-06T04:47:28;99755.22;;;17.56;100.00
38163;BME280;23977;53.078;18.248;2023-08-06T04:49:53;99755.00;;;17.57;100.00
38163;BME280;23977;53.078;18.248;2023-08-06T04:52:19;99776.19;;;17.78;100.00
38163;BME280;23977;53.078;18.248;2023-08-06T04:54:45;99769.63;;;17.73;100.00
38163;BME280;23977;53.078;18.248;2023-08-06T04:57:10;99763.91;;;17.82;100.00
38163;BME280;23977;53.078;18.248;2023-08-06T04:59:36;99754.72;;;18.01;100.00
38163;BME280;23977;53.078;18.248;2023-08-06T05:02:02;99723.84;;;17.92;100.00
38163;BME280;23977;53.078;18.248;2023-08-06T05:04:27;99738.09;;;18.04;100.00
38163;BME280;23977;53.078;18.248;2023-08-06T05:06:53;99745.13;;;18.05;100.00
38163;BME280;23977;53.078;18.248;2023-08-06T05:09:19;99725.69;;;18.03;100.00
38163;BME280;23977;53.078;18.248;2023-08-06T05:11:46;99715.97;;;18.02;100.00
38163;BME280;23977;53.078;18.248;2023-08-06T05:14:12;99719.84;;;18.06;100.00
38163;BME280;23977;53.078;18.248;2023-08-06T05:16:37;99724.97;;;18.20;100.00
38163;BME280;23977;53.078;18.248;2023-08-06T05:19:03;99734.69;;;18.21;100.00
38163;BME280;23977;53.078;18.248;2023-08-06T05:21:29;99739.50;;;18.30;100.00
38163;BME280;23977;53.078;18.248;2023-08-06T05:23:54;99745.25;;;18.22;100.00
38163;BME280;23977;53.078;18.248;2023-08-06T05:26:20;99738.78;;;18.11;100.00
38163;BME280;23977;53.078;18.248;2023-08-06T05:28:45;99738.69;;;18.06;100.00
38163;BME280;23977;53.078;18.248;2023-08-06T05:31:12;99737.16;;;18.10;100.00
38163;BME280;23977;53.078;18.248;2023-08-06T05:33:37;99724.84;;;18.26;100.00
38163;BME280;23977;53.078;18.248;2023-08-06T05:36:03;99730.00;;;18.28;100.00
38163;BME280;23977;53.078;18.248;2023-08-06T05:38:29;99714.53;;;18.23;100.00
38163;BME280;23977;53.078;18.248;2023-08-06T05:40:55;99699.00;;;18.14;100.00
38163;BME280;23977;53.078;18.248;2023-08-06T05:43:22;99713.38;;;18.31;100.00
38163;BME280;23977;53.078;18.248;2023-08-06T05:45:49;99720.72;;;18.47;100.00
38163;BME280;23977;53.078;18.248;2023-08-06T05:48:15;99724.00;;;18.49;100.00
38163;BME280;23977;53.078;18.248;2023-08-06T05:50:41;99712.88;;;18.46;100.00
38163;BME280;23977;53.078;18.248;2023-08-06T05:53:07;99699.78;;;18.38;100.00
38163;BME280;23977;53.078;18.248;2023-08-06T05:55:33;99714.88;;;18.51;100.00
38163;BME280;23977;53.078;18.248;2023-08-06T05:57:59;99703.63;;;18.54;100.00
38163;BME280;23977;53.078;18.248;2023-08-06T06:00:25;99699.84;;;18.55;100.00
38163;BME280;23977;53.078;18.248;2023-08-06T06:02:50;99693.66;;;18.54;100.00
38163;BME280;23977;53.078;18.248;2023-08-06T06:05:16;99683.72;;;18.72;100.00
38163;BME280;23977;53.078;18.248;2023-08-06T06:07:42;99702.72;;;18.89;100.00
38163;BME280;23977;53.078;18.248;2023-08-06T06:10:08;99686.53;;;18.89;100.00
38163;BME280;23977;53.078;18.248;2023-08-06T06:12:33;99703.16;;;19.14;100.00
38163;BME280;23977;53.078;18.248;2023-08-06T06:14:59;99690.63;;;19.08;100.00
38163;BME280;23977;53.078;18.248;2023-08-06T06:17:27;99672.66;;;18.97;100.00
38163;BME280;23977;53.078;18.248;2023-08-06T06:19:52;99690.06;;;19.06;100.00
38163;BME280;23977;53.078;18.248;2023-08-06T06:22:18;99685.84;;;19.10;100.00
38163;BME280;23977;53.078;18.248;2023-08-06T06:24:44;99669.97;;;18.97;100.00
38163;BME280;23977;53.078;18.248;2023-08-06T06:27:09;99664.66;;;19.02;100.00
38163;BME280;23977;53.078;18.248;2023-08-06T06:29:35;99668.91;;;19.15;100.00
38163;BME280;23977;53.078;18.248;2023-08-06T06:32:00;99654.88;;;19.30;100.00
38163;BME280;23977;53.078;18.248;2023-08-06T06:34:26;99634.44;;;19.34;100.00
38163;BME280;23977;53.078;18.248;2023-08-06T06:36:52;99646.78;;;19.64;100.00
38163;BME280;23977;53.078;18.248;2023-08-06T06:39:17;99639.72;;;19.63;100.00
38163;BME280;23977;53.078;18.248;2023-08-06T06:41:43;99633.53;;;19.79;100.00
38163;BME280;23977;53.078;18.248;2023-08-06T06:44:10;99634.81;;;19.93;100.00
38163;BME280;23977;53.078;18.248;2023-08-06T06:46:35;99649.94;;;19.94;100.00
38163;BME280;23977;53.078;18.248;2023-08-06T06:49:01;99635.06;;;20.14;100.00
38163;BME280;23977;53.078;18.248;2023-08-06T06:51:27;99633.09;;;20.09;100.00
38163;BME280;23977;53.078;18.248;2023-08-06T06:53:52;99633.41;;;20.13;100.00
38163;BME280;23977;53.078;18.248;2023-08-06T06:56:18;99608.00;;;20.09;100.00
38163;BME280;23977;53.078;18.248;2023-08-06T06:58:45;99619.34;;;20.11;100.00
38163;BME280;23977;53.078;18.248;2023-08-06T07:01:10;99615.06;;;20.15;100.00
38163;BME280;23977;53.078;18.248;2023-08-06T07:03:37;99619.09;;;20.34;100.00
38163;BME280;23977;53.078;18.248;2023-08-06T07:06:03;99626.00;;;20.47;100.00
38163;BME280;23977;53.078;18.248;2023-08-06T07:08:29;99615.44;;;20.46;100.00
38163;BME280;23977;53.078;18.248;2023-08-06T07:11:02;99609.47;;;20.44;100.00
38163;BME280;23977;53.078;18.248;2023-08-06T07:13:29;99619.53;;;20.48;100.00
38163;BME280;23977;53.078;18.248;2023-08-06T07:15:55;99612.19;;;20.44;100.00
38163;BME280;23977;53.078;18.248;2023-08-06T07:18:22;99599.13;;;20.36;100.00
38163;BME280;23977;53.078;18.248;2023-08-06T07:20:51;99600.28;;;20.45;100.00
38163;BME280;23977;53.078;18.248;2023-08-06T07:23:20;99589.66;;;20.38;100.00
38163;BME280;23977;53.078;18.248;2023-08-06T07:25:46;99594.47;;;20.31;100.00
38163;BME280;23977;53.078;18.248;2023-08-06T07:28:13;99585.16;;;20.44;100.00
38163;BME280;23977;53.078;18.248;2023-08-06T07:30:39;99567.28;;;20.15;100.00
38163;BME280;23977;53.078;18.248;2023-08-06T07:33:05;99575.84;;;20.34;100.00
38163;BME280;23977;53.078;18.248;2023-08-06T07:35:30;99575.47;;;20.48;100.00
38163;BME280;23977;53.078;18.248;2023-08-06T07:37:56;99543.44;;;20.34;100.00
38163;BME280;23977;53.078;18.248;2023-08-06T07:40:21;99544.88;;;20.42;100.00
38163;BME280;23977;53.078;18.248;2023-08-06T07:42:47;99549.47;;;20.42;100.00
38163;BME280;23977;53.078;18.248;2023-08-06T07:45:14;99564.16;;;20.51;100.00
38163;BME280;23977;53.078;18.248;2023-08-06T07:47:55;99554.28;;;20.40;100.00
38163;BME280;23977;53.078;18.248;2023-08-06T07:50:20;99558.53;;;20.30;100.00
38163;BME280;23977;53.078;18.248;2023-08-06T07:52:46;99547.09;;;20.23;100.00
38163;BME280;23977;53.078;18.248;2023-08-06T07:55:12;99554.25;;;20.34;100.00
38163;BME280;23977;53.078;18.248;2023-08-06T07:57:37;99548.28;;;20.05;100.00
38163;BME280;23977;53.078;18.248;2023-08-06T08:00:03;99527.13;;;19.97;100.00
38163;BME280;23977;53.078;18.248;2023-08-06T08:02:29;99524.28;;;20.09;100.00
38163;BME280;23977;53.078;18.248;2023-08-06T08:04:55;99537.31;;;20.17;100.00
38163;BME280;23977;53.078;18.248;2023-08-06T08:07:21;99527.22;;;20.07;100.00
38163;BME280;23977;53.078;18.248;2023-08-06T08:09:46;99548.03;;;20.07;100.00
38163;BME280;23977;53.078;18.248;2023-08-06T08:12:13;99523.31;;;19.98;100.00
38163;BME280;23977;53.078;18.248;2023-08-06T08:14:39;99531.72;;;20.02;100.00
38163;BME280;23977;53.078;18.248;2023-08-06T08:17:05;99514.31;;;19.87;100.00
38163;BME280;23977;53.078;18.248;2023-08-06T08:19:32;99519.88;;;20.03;100.00
38163;BME280;23977;53.078;18.248;2023-08-06T08:21:58;99511.28;;;20.06;100.00
38163;BME280;23977;53.078;18.248;2023-08-06T08:24:23;99492.38;;;20.06;100.00
38163;BME280;23977;53.078;18.248;2023-08-06T08:26:53;99491.56;;;20.32;100.00
38163;BME280;23977;53.078;18.248;2023-08-06T08:29:19;99499.72;;;20.38;100.00
38163;BME280;23977;53.078;18.248;2023-08-06T08:31:45;99491.56;;;20.32;100.00
38163;BME280;23977;53.078;18.248;2023-08-06T08:34:13;99486.22;;;20.43;100.00
38163;BME280;23977;53.078;18.248;2023-08-06T08:36:39;99485.53;;;20.52;100.00
38163;BME280;23977;53.078;18.248;2023-08-06T08:39:04;99473.28;;;20.45;100.00
38163;BME280;23977;53.078;18.248;2023-08-06T08:41:31;99467.19;;;20.27;100.00
38163;BME280;23977;53.078;18.248;2023-08-06T08:43:59;99473.19;;;20.34;100.00
38163;BME280;23977;53.078;18.248;2023-08-06T08:46:29;99458.03;;;20.28;100.00
38163;BME280;23977;53.078;18.248;2023-08-06T08:48:56;99469.53;;;20.46;100.00
38163;BME280;23977;53.078;18.248;2023-08-06T08:51:27;99471.16;;;20.47;100.00
38163;BME280;23977;53.078;18.248;2023-08-06T08:53:53;99467.31;;;20.43;100.00
38163;BME280;23977;53.078;18.248;2023-08-06T08:56:22;99457.59;;;20.42;100.00
38163;BME280;23977;53.078;18.248;2023-08-06T08:58:47;99452.28;;;20.52;100.00
38163;BME280;23977;53.078;18.248;2023-08-06T09:01:15;99445.28;;;20.56;100.00
38163;BME280;23977;53.078;18.248;2023-08-06T09:03:41;99448.19;;;20.49;100.00
38163;BME280;23977;53.078;18.248;2023-08-06T09:06:07;99440.22;;;20.65;100.00
38163;BME280;23977;53.078;18.248;2023-08-06T09:08:39;99429.72;;;20.68;100.00
38163;BME280;23977;53.078;18.248;2023-08-06T09:11:09;99427.69;;;20.91;100.00
38163;BME280;23977;53.078;18.248;2023-08-06T09:13:37;99440.09;;;20.82;100.00
38163;BME280;23977;53.078;18.248;2023-08-06T09:16:03;99436.97;;;20.63;100.00
38163;BME280;23977;53.078;18.248;2023-08-06T09:18:30;99438.41;;;20.70;100.00
38163;BME280;23977;53.078;18.248;2023-08-06T09:20:57;99419.38;;;20.60;100.00
38163;BME280;23977;53.078;18.248;2023-08-06T09:23:30;99421.88;;;20.67;100.00
38163;BME280;23977;53.078;18.248;2023-08-06T09:25:57;99419.63;;;20.59;100.00
38163;BME280;23977;53.078;18.248;2023-08-06T09:28:22;99417.88;;;20.75;100.00
38163;BME280;23977;53.078;18.248;2023-08-06T09:30:50;99410.59;;;20.75;100.00
38163;BME280;23977;53.078;18.248;2023-08-06T09:33:18;99407.06;;;20.75;100.00
38163;BME280;23977;53.078;18.248;2023-08-06T09:35:46;99392.69;;;20.69;100.00
38163;BME280;23977;53.078;18.248;2023-08-06T09:38:12;99400.38;;;20.87;100.00
38163;BME280;23977;53.078;18.248;2023-08-06T09:40:39;99401.66;;;20.75;100.00
38163;BME280;23977;53.078;18.248;2023-08-06T09:43:06;99380.94;;;20.53;100.00
38163;BME280;23977;53.078;18.248;2023-08-06T09:45:33;99389.22;;;20.74;100.00
38163;BME280;23977;53.078;18.248;2023-08-06T09:48:01;99363.69;;;20.59;100.00
38163;BME280;23977;53.078;18.248;2023-08-06T09:50:30;99368.53;;;20.57;100.00
38163;BME280;23977;53.078;18.248;2023-08-06T09:53:00;99345.78;;;20.53;100.00
38163;BME280;23977;53.078;18.248;2023-08-06T09:55:26;99379.78;;;20.81;100.00
38163;BME280;23977;53.078;18.248;2023-08-06T09:57:53;99362.81;;;20.91;100.00
38163;BME280;23977;53.078;18.248;2023-08-06T10:00:19;99353.50;;;20.72;100.00
38163;BME280;23977;53.078;18.248;2023-08-06T10:02:48;99358.66;;;20.78;100.00
38163;BME280;23977;53.078;18.248;2023-08-06T10:05:15;99357.94;;;20.93;100.00
38163;BME280;23977;53.078;18.248;2023-08-06T10:07:43;99357.34;;;20.81;100.00
38163;BME280;23977;53.078;18.248;2023-08-06T10:10:10;99354.59;;;20.70;100.00
38163;BME280;23977;53.078;18.248;2023-08-06T10:12:40;99350.63;;;20.83;100.00
38163;BME280;23977;53.078;18.248;2023-08-06T10:15:11;99358.38;;;20.75;100.00
38163;BME280;23977;53.078;18.248;2023-08-06T10:17:38;99350.28;;;20.75;100.00
38163;BME280;23977;53.078;18.248;2023-08-06T10:20:07;99340.50;;;20.63;100.00
38163;BME280;23977;53.078;18.248;2023-08-06T10:22:33;99331.75;;;20.99;100.00
38163;BME280;23977;53.078;18.248;2023-08-06T10:25:01;99329.88;;;21.10;100.00
38163;BME280;23977;53.078;18.248;2023-08-06T10:27:41;99329.88;;;21.10;100.00
38163;BME280;23977;53.078;18.248;2023-08-06T10:30:25;99327.50;;;21.18;100.00
38163;BME280;23977;53.078;18.248;2023-08-06T10:33:02;99326.16;;;21.21;100.00
38163;BME280;23977;53.078;18.248;2023-08-06T10:37:58;99327.22;;;21.20;100.00
38163;BME280;23977;53.078;18.248;2023-08-06T10:40:23;99318.06;;;21.31;100.00
38163;BME280;23977;53.078;18.248;2023-08-06T10:42:51;99289.41;;;21.35;100.00
38163;BME280;23977;53.078;18.248;2023-08-06T10:45:18;99300.00;;;21.52;100.00
38163;BME280;23977;53.078;18.248;2023-08-06T10:47:45;99287.28;;;21.53;100.00
38163;BME280;23977;53.078;18.248;2023-08-06T10:50:16;99279.69;;;21.50;100.00
38163;BME280;23977;53.078;18.248;2023-08-06T10:52:46;99274.59;;;21.58;100.00
38163;BME280;23977;53.078;18.248;2023-08-06T10:55:23;99255.84;;;21.41;100.00
38163;BME280;23977;53.078;18.248;2023-08-06T10:57:49;99268.56;;;21.46;100.00
38163;BME280;23977;53.078;18.248;2023-08-06T11:00:15;99264.50;;;21.38;100.00
38163;BME280;23977;53.078;18.248;2023-08-06T11:02:41;99246.88;;;21.15;100.00
38163;BME280;23977;53.078;18.248;2023-08-06T11:05:08;99261.25;;;21.36;100.00
38163;BME280;23977;53.078;18.248;2023-08-06T11:07:35;99259.63;;;21.25;100.00
38163;BME280;23977;53.078;18.248;2023-08-06T11:10:05;99255.84;;;21.41;100.00
38163;BME280;23977;53.078;18.248;2023-08-06T11:12:35;99255.59;;;21.48;100.00
38163;BME280;23977;53.078;18.248;2023-08-06T11:15:02;99247.19;;;21.39;100.00
38163;BME280;23977;53.078;18.248;2023-08-06T11:17:29;99232.81;;;21.18;100.00
38163;BME280;23977;53.078;18.248;2023-08-06T11:19:55;99234.19;;;21.26;100.00
38163;BME280;23977;53.078;18.248;2023-08-06T11:22:21;99215.25;;;21.31;100.00
38163;BME280;23977;53.078;18.248;2023-08-06T11:24:48;99201.19;;;21.29;100.00
38163;BME280;23977;53.078;18.248;2023-08-06T11:27:14;99217.41;;;21.34;100.00
38163;BME280;23977;53.078;18.248;2023-08-06T11:29:41;99202.81;;;21.30;100.00
38163;BME280;23977;53.078;18.248;2023-08-06T11:32:08;99199.06;;;21.62;100.00
38163;BME280;23977;53.078;18.248;2023-08-06T11:34:34;99196.06;;;21.84;100.00
38163;BME280;23977;53.078;18.248;2023-08-06T11:36:59;99199.56;;;22.00;100.00
38163;BME280;23977;53.078;18.248;2023-08-06T11:39:25;99189.78;;;22.09;100.00
38163;BME280;23977;53.078;18.248;2023-08-06T11:41:51;99169.19;;;22.03;100.00
38163;BME280;23977;53.078;18.248;2023-08-06T11:44:21;99180.53;;;22.31;100.00
38163;BME280;23977;53.078;18.248;2023-08-06T11:46:55;99182.69;;;22.34;100.00
38163;BME280;23977;53.078;18.248;2023-08-06T11:52:17;99155.56;;;22.39;100.00
38163;BME280;23977;53.078;18.248;2023-08-06T11:55:01;99144.69;;;22.44;100.00
38163;BME280;23977;53.078;18.248;2023-08-06T11:57:33;99144.28;;;22.71;100.00
38163;BME280;23977;53.078;18.248;2023-08-06T12:00:04;99140.47;;;22.72;100.00
38163;BME280;23977;53.078;18.248;2023-08-06T12:02:34;99151.56;;;22.76;100.00
38163;BME280;23977;53.078;18.248;2023-08-06T12:05:10;99156.69;;;22.83;100.00
38163;BME280;23977;53.078;18.248;2023-08-06T12:07:38;99160.34;;;22.58;100.00
38163;BME280;23977;53.078;18.248;2023-08-06T12:10:04;99155.84;;;22.38;100.00
38163;BME280;23977;53.078;18.248;2023-08-06T12:12:30;99141.53;;;22.11;100.00
38163;BME280;23977;53.078;18.248;2023-08-06T12:14:56;99163.78;;;21.98;100.00
38163;BME280;23977;53.078;18.248;2023-08-06T12:17:23;99161.00;;;22.24;100.00
38163;BME280;23977;53.078;18.248;2023-08-06T12:19:50;99161.63;;;22.05;100.00
38163;BME280;23977;53.078;18.248;2023-08-06T12:22:15;99166.50;;;22.08;100.00
38163;BME280;23977;53.078;18.248;2023-08-06T12:24:42;99153.97;;;22.17;100.00
38163;BME280;23977;53.078;18.248;2023-08-06T12:27:09;99125.41;;;21.75;100.00
38163;BME280;23977;53.078;18.248;2023-08-06T12:29:35;99155.13;;;21.96;100.00
38163;BME280;23977;53.078;18.248;2023-08-06T12:32:01;99143.53;;;21.75;100.00
38163;BME280;23977;53.078;18.248;2023-08-06T12:34:27;99112.41;;;21.72;100.00
38163;BME280;23977;53.078;18.248;2023-08-06T12:36:52;99130.75;;;21.96;100.00
38163;BME280;23977;53.078;18.248;2023-08-06T12:39:18;99120.78;;;21.81;100.00
38163;BME280;23977;53.078;18.248;2023-08-06T12:41:44;99128.59;;;21.93;100.00
38163;BME280;23977;53.078;18.248;2023-08-06T12:44:12;99112.31;;;22.08;100.00
38163;BME280;23977;53.078;18.248;2023-08-06T12:46:37;99106.81;;;22.29;100.00